Time;durP1;ratioP1;P1;durP2;ratioP2;P2;SDS_P1;SDS_P2;PMS_P1;PMS_P2;Temp;Humidity;BMP_temperature;BMP_pressure;BME280_temperature;BME280_humidity;BME280_pressure;Samples;Min_cycle;Max_cycle;Signal;HPM_P1;HPM_P2
2021/05/23 00:02:06;;;;;;;11.85;6.93;;;461.70;2380.80;;;;;;5083634;28;20111;-76
2021/05/23 00:04:32;;;;;;;11.98;6.60;;;461.70;2380.80;;;;;;5080716;28;20112;-75
2021/05/23 00:06:58;;;;;;;12.63;5.28;;;461.70;2380.80;;;;;;5075585;28;20550;-76
2021/05/23 00:09:25;;;;;;;11.63;6.03;;;461.60;2380.80;;;;;;5086415;28;20033;-76
2021/05/23 00:11:52;;;;;;;9.90;5.75;;;461.60;2380.80;;;;;;5075497;28;20020;-76
2021/05/23 00:14:19;;;;;;;7.65;5.32;;;461.50;2380.80;;;;;;5082230;28;20035;-76
2021/05/23 00:16:45;;;;;;;11.55;5.85;;;461.40;2380.80;;;;;;5077917;28;20028;-78
2021/05/23 00:19:12;;;;;;;11.05;5.47;;;461.40;2380.80;;;;;;5078505;28;20637;-77
2021/05/23 00:21:37;;;;;;;10.73;5.75;;;461.50;2380.80;;;;;;5077619;28;20484;-77
2021/05/23 00:24:04;;;;;;;7.45;5.30;;;461.60;2380.80;;;;;;5077388;28;20035;-78
2021/05/23 00:26:30;;;;;;;10.80;5.22;;;461.60;2380.80;;;;;;5078786;28;20483;-77
2021/05/23 00:28:56;;;;;;;10.80;5.72;;;461.60;2380.80;;;;;;5077188;28;20028;-78
2021/05/23 00:31:22;;;;;;;8.30;5.93;;;461.70;2380.80;;;;;;5078525;28;20169;-78
2021/05/23 00:33:48;;;;;;;9.20;4.82;;;461.70;2380.80;;;;;;5088989;28;20107;-79
2021/05/23 00:36:13;;;;;;;9.68;5.28;;;461.70;2380.80;;;;;;5074877;28;20762;-79
2021/05/23 00:38:40;;;;;;;9.48;5.32;;;461.70;2380.80;;;;;;5070440;28;20024;-79
2021/05/23 00:41:06;;;;;;;7.88;4.90;;;461.70;2380.80;;;;;;5073289;28;20027;-80
2021/05/23 00:43:32;;;;;;;6.75;5.28;;;461.70;2380.80;;;;;;5072448;28;20024;-80
2021/05/23 00:45:58;;;;;;;7.63;5.05;;;461.70;2380.80;;;;;;5069524;28;20039;-80
2021/05/23 00:48:24;;;;;;;5.82;4.43;;;461.70;2380.80;;;;;;5081991;28;20028;-79
2021/05/23 00:50:51;;;;;;;8.05;3.70;;;461.70;2380.80;;;;;;5074959;28;20028;-79
2021/05/23 00:53:17;;;;;;;5.45;4.60;;;461.60;2380.80;;;;;;5080990;28;20406;-79
2021/05/23 00:55:43;;;;;;;5.00;4.03;;;461.60;2380.80;;;;;;5079147;28;20060;-79
2021/05/23 00:58:10;;;;;;;7.35;3.78;;;461.50;2380.80;;;;;;5085276;28;20016;-80
2021/05/23 01:00:44;;;;;;;8.15;5.22;;;461.50;2380.80;;;;;;5071110;28;20487;-80
2021/05/23 01:03:31;;;;;;;5.72;3.85;;;461.40;2380.80;;;;;;5079918;28;20402;-79
2021/05/23 01:06:06;;;;;;;5.30;3.75;;;461.40;2380.80;;;;;;5088302;28;20035;-79
2021/05/23 01:08:37;;;;;;;6.32;4.90;;;461.30;2380.80;;;;;;5084382;28;20024;-79
2021/05/23 01:11:08;;;;;;;6.78;4.03;;;461.20;2380.80;;;;;;5085155;28;20024;-79
2021/05/23 01:13:55;;;;;;;5.78;4.03;;;461.20;2380.80;;;;;;5073750;28;20392;-79
2021/05/23 01:16:34;;;;;;;7.35;3.80;;;461.30;2380.80;;;;;;5073636;28;20043;-79
2021/05/23 01:19:12;;;;;;;5.78;3.70;;;461.20;2380.80;;;;;;5061657;28;20464;-79
2021/05/23 01:21:42;;;;;;;5.93;3.58;;;461.30;2380.80;;;;;;5095481;28;20372;-78
2021/05/23 01:24:24;;;;;;;5.78;4.20;;;461.20;2380.80;;;;;;5069192;28;20028;-79
2021/05/23 01:26:53;;;;;;;4.93;3.55;;;461.20;2380.80;;;;;;5067871;28;20025;-79
2021/05/23 01:29:20;;;;;;;7.20;3.78;;;461.20;2380.80;;;;;;5051634;28;20021;-79
2021/05/23 01:31:47;;;;;;;7.20;4.18;;;461.10;2380.80;;;;;;5069295;28;20025;-78
2021/05/23 01:34:20;;;;;;;10.85;4.55;;;461.10;2380.80;;;;;;5065480;28;20056;-78
2021/05/23 01:36:46;;;;;;;5.03;3.50;;;461.10;2380.80;;;;;;5078392;28;20067;-77
2021/05/23 01:39:13;;;;;;;5.60;3.60;;;461.10;2380.80;;;;;;5078254;28;20032;-77
2021/05/23 01:41:41;;;;;;;7.13;4.22;;;461.10;2380.80;;;;;;5072193;28;20082;-78
2021/05/23 01:44:07;;;;;;;6.05;3.78;;;461.10;2380.80;;;;;;5073870;28;20039;-77
2021/05/23 01:46:33;;;;;;;9.20;4.57;;;461.10;2380.80;;;;;;5073438;28;20020;-78
2021/05/23 01:48:59;;;;;;;7.85;4.65;;;461.10;2380.80;;;;;;5073386;28;20040;-78
2021/05/23 01:51:25;;;;;;;4.82;3.72;;;461.00;2380.80;;;;;;5074619;28;20024;-78
2021/05/23 01:53:51;;;;;;;5.65;3.78;;;461.00;2380.80;;;;;;5072465;28;20461;-78
2021/05/23 01:56:17;;;;;;;7.25;3.30;;;461.10;2380.80;;;;;;5073285;28;20046;-78
2021/05/23 01:58:43;;;;;;;5.18;3.72;;;461.00;2380.80;;;;;;5073949;28;20021;-78
2021/05/23 02:01:09;;;;;;;4.60;3.38;;;461.00;2380.80;;;;;;5073084;28;20028;-78
2021/05/23 02:03:35;;;;;;;4.95;3.47;;;461.00;2380.80;;;;;;5072758;28;20025;-78
2021/05/23 02:06:03;;;;;;;7.10;4.05;;;461.00;2380.80;;;;;;5074082;28;20032;-78
2021/05/23 02:08:32;;;;;;;5.95;3.83;;;460.90;2380.80;;;;;;5072124;28;20027;-78
2021/05/23 02:11:07;;;;;;;9.48;4.70;;;460.90;2380.80;;;;;;5073292;28;20023;-79
2021/05/23 02:13:34;;;;;;;8.18;3.70;;;461.00;2380.80;;;;;;5072735;28;20024;-78
2021/05/23 02:16:04;;;;;;;6.18;3.80;;;460.90;2380.80;;;;;;5064679;28;20147;-79
2021/05/23 02:18:33;;;;;;;7.05;4.13;;;460.90;2380.80;;;;;;5064984;28;20075;-79
2021/05/23 02:20:59;;;;;;;6.35;3.92;;;460.80;2380.80;;;;;;5075699;28;20013;-79
2021/05/23 02:23:25;;;;;;;9.82;3.50;;;460.80;2380.80;;;;;;5082994;28;20047;-79
2021/05/23 02:25:52;;;;;;;4.28;3.15;;;436.10;2355.20;;;;;;5064937;28;20120;-79
2021/05/23 02:28:20;;;;;;;7.43;3.92;;;436.00;2355.20;;;;;;5083827;28;20013;-79
2021/05/23 02:30:52;;;;;;;5.03;3.67;;;436.00;2355.20;;;;;;5068034;28;20021;-79
2021/05/23 02:33:19;;;;;;;5.20;3.53;;;436.00;2355.20;;;;;;5057569;28;20077;-79
2021/05/23 02:35:48;;;;;;;6.07;3.85;;;436.00;2355.20;;;;;;5072537;28;20483;-78
2021/05/23 02:38:16;;;;;;;5.57;3.70;;;460.80;2380.80;;;;;;5070629;28;20063;-78
2021/05/23 02:40:43;;;;;;;8.15;3.72;;;460.80;2380.80;;;;;;5067243;28;20025;-79
2021/05/23 02:43:10;;;;;;;4.47;3.45;;;460.80;2380.80;;;;;;5059893;28;20482;-78
2021/05/23 02:45:36;;;;;;;6.40;4.95;;;460.90;2380.80;;;;;;5072285;28;20071;-78
2021/05/23 02:48:04;;;;;;;10.05;6.10;;;460.80;2380.80;;;;;;5070560;28;20161;-77
2021/05/23 02:50:33;;;;;;;11.02;5.57;;;460.80;2380.80;;;;;;5065032;28;20020;-77
2021/05/23 02:52:59;;;;;;;8.68;4.78;;;460.80;2380.80;;;;;;5077276;28;20487;-77
2021/05/23 02:55:25;;;;;;;7.43;4.13;;;460.80;2380.80;;;;;;5073033;28;20059;-77
2021/05/23 02:57:51;;;;;;;5.07;3.67;;;460.80;2380.80;;;;;;5072242;28;20028;-77
2021/05/23 03:00:20;;;;;;;7.68;4.43;;;460.80;2380.80;;;;;;5072580;28;20039;-76
2021/05/23 03:02:46;;;;;;;6.60;4.07;;;460.80;2380.80;;;;;;5086092;28;20020;-76
2021/05/23 03:05:14;;;;;;;6.78;4.68;;;460.80;2380.80;;;;;;5072911;28;20024;-76
2021/05/23 03:07:42;;;;;;;5.70;4.20;;;460.80;2380.80;;;;;;5075547;28;20021;-76
2021/05/23 03:10:10;;;;;;;5.47;3.45;;;460.80;2380.80;;;;;;5078893;28;20501;-76
2021/05/23 03:12:37;;;;;;;4.97;3.60;;;460.80;2380.80;;;;;;5067196;28;20120;-77
2021/05/23 03:15:08;;;;;;;6.82;3.92;;;460.80;2380.80;;;;;;5071638;28;20031;-77
2021/05/23 03:17:34;;;;;;;6.97;3.58;;;460.80;2380.80;;;;;;5067850;28;20117;-77
2021/05/23 03:20:00;;;;;;;6.28;4.03;;;460.90;2380.80;;;;;;5074957;28;20111;-77
2021/05/23 03:22:25;;;;;;;5.38;3.75;;;460.90;2380.80;;;;;;5091614;28;20093;-77
2021/05/23 03:24:51;;;;;;;6.75;4.57;;;460.80;2380.80;;;;;;5072996;28;20150;-77
2021/05/23 03:27:17;;;;;;;5.68;3.72;;;460.80;2380.80;;;;;;5072358;28;20052;-78
2021/05/23 03:29:43;;;;;;;7.32;3.42;;;460.80;2380.80;;;;;;5085497;28;20069;-77
2021/05/23 03:32:09;;;;;;;7.13;3.55;;;460.80;2380.80;;;;;;5075346;28;20028;-78
2021/05/23 03:34:34;;;;;;;9.68;3.40;;;460.90;2380.80;;;;;;5071060;28;20029;-77
2021/05/23 03:37:00;;;;;;;4.95;3.38;;;461.00;2380.80;;;;;;5071139;28;20024;-78
2021/05/23 03:39:26;;;;;;;10.43;7.30;;;461.10;2380.80;;;;;;5074653;28;20024;-78
2021/05/23 03:41:52;;;;;;;10.52;6.20;;;461.10;2380.80;;;;;;5085584;28;20074;-78
2021/05/23 03:44:17;;;;;;;9.70;5.93;;;461.10;2380.80;;;;;;5074793;28;20480;-77
2021/05/23 03:46:43;;;;;;;8.23;5.75;;;461.10;2380.80;;;;;;5072468;28;20031;-77
2021/05/23 03:49:09;;;;;;;5.88;3.97;;;461.10;2380.80;;;;;;5065028;28;20024;-78
2021/05/23 03:51:34;;;;;;;6.03;4.18;;;461.20;2380.80;;;;;;5062687;28;20029;-78
2021/05/23 03:54:00;;;;;;;5.25;3.30;;;461.40;2380.80;;;;;;5076196;28;20029;-78
2021/05/23 03:56:26;;;;;;;4.95;3.50;;;461.40;2380.80;;;;;;5080703;28;20020;-78
2021/05/23 03:58:52;;;;;;;4.90;2.95;;;461.50;2380.80;;;;;;5083725;28;20066;-78
2021/05/23 04:01:18;;;;;;;5.63;3.15;;;461.40;2380.80;;;;;;5066205;28;20074;-78
2021/05/23 04:03:44;;;;;;;4.50;3.30;;;461.50;2380.80;;;;;;5059988;28;20021;-79
2021/05/23 04:06:09;;;;;;;6.70;3.17;;;461.50;2380.80;;;;;;5087926;28;20024;-78
2021/05/23 04:08:35;;;;;;;6.15;3.05;;;461.60;2380.80;;;;;;5075721;28;20356;-78
2021/05/23 04:11:13;;;;;;;5.28;2.97;;;461.60;2380.80;;;;;;5080072;28;20016;-78
2021/05/23 04:13:40;;;;;;;4.85;2.92;;;461.70;2380.80;;;;;;5063030;28;20012;-78
2021/05/23 04:16:08;;;;;;;3.50;2.60;;;461.70;2380.80;;;;;;5062349;28;20024;-78
2021/05/23 04:18:33;;;;;;;7.85;2.75;;;461.70;2380.80;;;;;;5070175;28;20033;-78
2021/05/23 04:20:59;;;;;;;4.38;3.08;;;486.40;2380.80;;;;;;5072189;28;20142;-78
2021/05/23 04:23:25;;;;;;;6.75;3.38;;;486.40;2380.80;;;;;;5069073;28;20028;-78
2021/05/23 04:25:51;;;;;;;7.15;3.22;;;486.40;2380.80;;;;;;5068166;28;20028;-78
2021/05/23 04:28:18;;;;;;;9.35;3.13;;;486.50;2380.80;;;;;;5082690;28;20019;-78
2021/05/23 04:30:44;;;;;;;4.90;3.10;;;486.60;2380.80;;;;;;5070922;28;20728;-78
2021/05/23 04:33:09;;;;;;;5.35;3.22;;;486.70;2355.20;;;;;;5053997;28;20024;-78
2021/05/23 04:35:35;;;;;;;4.47;2.63;;;486.80;2329.60;;;;;;5051985;28;20143;-78
2021/05/23 04:38:03;;;;;;;5.57;3.33;;;487.00;2304.00;;;;;;5055108;28;20119;-78
2021/05/23 04:40:29;;;;;;;5.28;2.88;;;487.20;2278.40;;;;;;5050528;28;20021;-79
2021/05/23 04:42:55;;;;;;;5.10;3.58;;;512.00;2252.80;;;;;;5065894;28;20041;-78
2021/05/23 04:45:21;;;;;;;5.80;4.18;;;512.30;2227.20;;;;;;5068947;28;20025;-78
2021/05/23 04:47:48;;;;;;;6.25;3.42;;;512.60;2201.60;;;;;;5079315;28;20051;-79
2021/05/23 04:50:15;;;;;;;4.75;2.55;;;512.90;2176.00;;;;;;5066344;28;20028;-79
2021/05/23 04:52:41;;;;;;;5.22;3.58;;;537.90;2150.40;;;;;;5069671;28;20044;-77
2021/05/23 04:55:08;;;;;;;7.15;3.03;;;538.10;2124.80;;;;;;5069236;28;20549;-78
2021/05/23 04:57:34;;;;;;;6.07;4.13;;;538.40;2073.60;;;;;;5069239;28;20089;-78
2021/05/23 05:00:00;;;;;;;5.55;3.88;;;538.50;2073.60;;;;;;5082247;28;20089;-78
2021/05/23 05:02:25;;;;;;;5.05;3.10;;;538.50;2022.40;;;;;;5056712;28;20511;-78
2021/05/23 05:04:51;;;;;;;5.75;3.25;;;563.30;2048.00;;;;;;5062540;28;20017;-79
2021/05/23 05:07:17;;;;;;;4.32;2.80;;;563.40;2048.00;;;;;;5092075;28;20471;-78
2021/05/23 05:09:43;;;;;;;4.65;3.22;;;563.50;2022.40;;;;;;5087076;28;20020;-79
2021/05/23 05:12:09;;;;;;;7.05;3.42;;;563.60;2022.40;;;;;;5083102;28;20054;-78
2021/05/23 05:14:35;;;;;;;5.72;3.70;;;563.70;2022.40;;;;;;5082907;28;20032;-78
2021/05/23 05:17:02;;;;;;;5.38;3.45;;;563.80;1996.80;;;;;;5083721;28;20035;-77
2021/05/23 05:19:27;;;;;;;4.90;3.22;;;564.00;1996.80;;;;;;5078257;28;20103;-78
2021/05/23 05:21:53;;;;;;;5.32;3.10;;;564.10;1945.60;;;;;;5077859;28;20136;-78
2021/05/23 05:24:19;;;;;;;5.38;3.70;;;564.10;1971.20;;;;;;5066822;28;20543;-77
2021/05/23 05:26:45;;;;;;;8.68;3.60;;;588.90;1945.60;;;;;;5075274;28;20024;-78
2021/05/23 05:29:11;;;;;;;4.32;2.45;;;589.00;1894.40;;;;;;5065502;28;20387;-77
2021/05/23 05:31:37;;;;;;;5.05;2.63;;;589.10;1843.20;;;;;;5077359;28;20024;-78
2021/05/23 05:34:03;;;;;;;5.18;2.90;;;589.30;1868.80;;;;;;5071133;28;20020;-78
2021/05/23 05:36:29;;;;;;;10.88;2.40;;;589.40;1868.80;;;;;;5079265;28;20081;-78
2021/05/23 05:38:55;;;;;;;3.25;2.20;;;589.70;1843.20;;;;;;5073469;28;20391;-78
2021/05/23 05:41:21;;;;;;;11.65;3.17;;;589.70;1843.20;;;;;;5086143;28;20032;-78
2021/05/23 05:43:48;;;;;;;5.22;2.47;;;614.60;1792.00;;;;;;5071209;28;20033;-77
2021/05/23 05:46:13;;;;;;;3.72;2.30;;;614.70;1766.40;;;;;;5074688;28;20017;-77
2021/05/23 05:48:39;;;;;;;4.75;2.03;;;614.90;1715.20;;;;;;5075867;28;20085;-80
2021/05/23 05:51:06;;;;;;;3.45;2.08;;;615.20;1715.20;;;;;;5079352;28;20021;-79
2021/05/23 05:53:32;;;;;;;3.72;1.80;;;615.30;1715.20;;;;;;5084369;28;20048;-79
2021/05/23 05:55:58;;;;;;;5.35;2.03;;;640.20;1638.40;;;;;;5084172;28;20498;-78
2021/05/23 05:58:23;;;;;;;4.38;2.42;;;640.20;1638.40;;;;;;5081127;28;20028;-78
2021/05/23 06:00:49;;;;;;;3.42;2.22;;;640.30;1612.80;;;;;;5081638;28;20181;-78
2021/05/23 06:03:15;;;;;;;3.00;1.73;;;640.20;1587.20;;;;;;5084488;28;20541;-78
2021/05/23 06:05:41;;;;;;;3.67;2.20;;;640.30;1587.20;;;;;;5082104;28;20026;-78
2021/05/23 06:08:06;;;;;;;5.43;1.80;;;640.40;1587.20;;;;;;5081249;28;20108;-78
2021/05/23 06:10:32;;;;;;;3.10;2.00;;;640.30;1612.80;;;;;;5082574;28;20030;-78
2021/05/23 06:12:59;;;;;;;4.63;1.83;;;640.50;1587.20;;;;;;5082318;28;20494;-78
2021/05/23 06:15:25;;;;;;;3.63;2.20;;;640.70;1561.60;;;;;;5077825;28;20488;-78
2021/05/23 06:17:50;;;;;;;3.25;1.80;;;665.60;1587.20;;;;;;5078898;28;20028;-78
2021/05/23 06:20:16;;;;;;;4.32;1.92;;;665.70;1561.60;;;;;;5095052;28;20856;-78
2021/05/23 06:22:42;;;;;;;2.97;1.83;;;665.80;1536.00;;;;;;5083873;28;20044;-78
2021/05/23 06:25:08;;;;;;;6.47;2.47;;;665.90;1536.00;;;;;;5083275;28;20043;-78
2021/05/23 06:27:35;;;;;;;6.78;3.00;;;665.90;1561.60;;;;;;5081317;28;20024;-78
2021/05/23 06:30:00;;;;;;;3.83;2.10;;;666.10;1510.40;;;;;;5084171;28;20036;-77
2021/05/23 06:32:26;;;;;;;6.32;2.80;;;666.30;1510.40;;;;;;5073929;28;20025;-77
2021/05/23 06:34:53;;;;;;;5.15;2.42;;;666.40;1510.40;;;;;;5065842;28;20068;-78
2021/05/23 06:37:19;;;;;;;5.05;2.45;;;666.40;1484.80;;;;;;5064584;28;20029;-76
2021/05/23 06:39:45;;;;;;;5.57;1.83;;;666.50;1459.20;;;;;;5060332;28;20040;-76
2021/05/23 06:42:11;;;;;;;3.80;1.90;;;666.50;1408.00;;;;;;5091716;28;20419;-76
2021/05/23 06:44:36;;;;;;;3.55;2.47;;;691.20;1408.00;;;;;;5086916;28;20064;-75
2021/05/23 06:47:03;;;;;;;4.22;2.10;;;691.50;1433.60;;;;;;5086000;28;20020;-78
2021/05/23 06:49:28;;;;;;;6.55;2.10;;;691.70;1408.00;;;;;;5083124;28;20021;-76
2021/05/23 06:51:55;;;;;;;4.68;2.20;;;692.00;1356.80;;;;;;5081024;28;20043;-78
2021/05/23 06:54:20;;;;;;;5.78;2.40;;;717.30;1356.80;;;;;;5073895;28;20151;-77
2021/05/23 06:56:46;;;;;;;3.22;1.55;;;742.40;1356.80;;;;;;5074075;28;20177;-76
2021/05/23 06:59:12;;;;;;;4.45;2.03;;;717.60;1280.00;;;;;;5086461;28;20392;-77
2021/05/23 07:01:38;;;;;;;4.05;2.08;;;742.40;1280.00;;;;;;5075542;28;20494;-76
2021/05/23 07:04:04;;;;;;;2.83;2.03;;;742.50;1280.00;;;;;;5073667;28;20450;-77
2021/05/23 07:06:30;;;;;;;4.25;1.85;;;742.70;1280.00;;;;;;5061417;28;20020;-76
2021/05/23 07:08:55;;;;;;;3.28;1.67;;;742.90;1228.80;;;;;;5072250;28;20100;-77
2021/05/23 07:11:21;;;;;;;3.28;2.10;;;743.10;1177.60;;;;;;5071550;28;20056;-75
2021/05/23 07:13:47;;;;;;;2.25;1.70;;;743.20;1177.60;;;;;;5071144;28;20017;-76
2021/05/23 07:16:13;;;;;;;4.05;1.95;;;743.30;1177.60;;;;;;5070879;28;20055;-77
2021/05/23 07:18:38;;;;;;;3.42;1.80;;;768.00;1126.40;;;;;;5071701;28;20021;-75
2021/05/23 07:21:04;;;;;;;3.55;1.80;;;768.10;1152.00;;;;;;5083957;28;20024;-76
2021/05/23 07:23:30;;;;;;;2.70;1.70;;;768.20;1126.40;;;;;;5062358;28;20437;-76
2021/05/23 07:25:56;;;;;;;3.22;1.58;;;768.00;1126.40;;;;;;5073886;28;20052;-76
2021/05/23 07:28:23;;;;;;;3.10;1.80;;;768.10;1126.40;;;;;;5073905;28;20033;-77
2021/05/23 07:30:49;;;;;;;2.85;1.38;;;768.10;1126.40;;;;;;5083463;28;20022;-76
2021/05/23 07:33:15;;;;;;;4.47;1.90;;;768.10;1126.40;;;;;;5062752;28;20103;-76
2021/05/23 07:35:42;;;;;;;4.43;2.00;;;768.00;1126.40;;;;;;5085878;28;20036;-76
2021/05/23 07:38:08;;;;;;;4.15;1.73;;;768.00;1152.00;;;;;;5079524;28;20031;-77
2021/05/23 07:40:34;;;;;;;3.03;1.95;;;768.10;1126.40;;;;;;5073268;28;20025;-77
2021/05/23 07:43:00;;;;;;;4.03;2.13;;;768.20;1126.40;;;;;;5082093;28;20039;-77
2021/05/23 07:45:26;;;;;;;3.00;2.00;;;768.20;1100.80;;;;;;5070374;28;20025;-78
2021/05/23 07:47:52;;;;;;;2.03;1.48;;;768.10;1126.40;;;;;;5087964;28;20070;-77
2021/05/23 07:50:18;;;;;;;5.05;2.92;;;768.20;1126.40;;;;;;5071674;28;20494;-81
2021/05/23 07:52:43;;;;;;;3.38;1.95;;;768.30;1126.40;;;;;;5077547;28;20043;-77
2021/05/23 07:55:10;;;;;;;3.13;2.20;;;768.20;1126.40;;;;;;5073452;28;20063;-78
2021/05/23 07:57:36;;;;;;;5.00;2.42;;;768.30;1126.40;;;;;;5070395;28;20049;-78
2021/05/23 08:00:05;;;;;;;3.22;1.90;;;768.30;1126.40;;;;;;5073636;28;20024;-78
2021/05/23 08:02:31;;;;;;;3.17;1.98;;;768.70;1100.80;;;;;;5072081;28;20040;-77
2021/05/23 08:04:57;;;;;;;2.40;1.80;;;768.70;1049.60;;;;;;5068116;28;20033;-77
2021/05/23 08:07:23;;;;;;;4.78;2.40;;;793.60;1075.20;;;;;;5078117;28;20031;-77
2021/05/23 08:09:49;;;;;;;4.78;2.38;;;793.60;1100.80;;;;;;5077192;28;20023;-77
2021/05/23 08:12:15;;;;;;;5.22;1.95;;;768.70;1100.80;;;;;;5075600;28;20024;-77
2021/05/23 08:14:41;;;;;;;4.75;2.95;;;768.90;1075.20;;;;;;5072909;28;20471;-77
2021/05/23 08:17:07;;;;;;;4.30;2.00;;;793.60;1100.80;;;;;;5071029;28;20028;-76
2021/05/23 08:19:33;;;;;;;5.45;2.83;;;793.60;1100.80;;;;;;5074107;28;20029;-76
2021/05/23 08:21:58;;;;;;;5.50;2.60;;;793.70;1100.80;;;;;;5083611;28;20035;-77
2021/05/23 08:24:25;;;;;;;2.92;1.90;;;793.80;1126.40;;;;;;5073596;28;20028;-77
2021/05/23 08:26:51;;;;;;;4.78;2.28;;;793.90;1100.80;;;;;;5075655;28;20055;-78
2021/05/23 08:29:16;;;;;;;4.68;2.30;;;794.10;1100.80;;;;;;5069918;28;20777;-77
2021/05/23 08:31:42;;;;;;;4.63;1.90;;;793.90;1049.60;;;;;;5072777;28;20020;-77
2021/05/23 08:34:08;;;;;;;3.35;1.88;;;793.80;1100.80;;;;;;5084779;28;20020;-77
2021/05/23 08:36:34;;;;;;;2.05;1.70;;;794.10;1075.20;;;;;;5073724;28;20029;-77
2021/05/23 08:38:59;;;;;;;3.75;2.75;;;793.90;1075.20;;;;;;5075786;28;20107;-77
2021/05/23 08:41:25;;;;;;;5.32;2.17;;;794.30;1075.20;;;;;;5080968;28;20165;-77
2021/05/23 08:43:52;;;;;;;3.55;2.45;;;794.40;1075.20;;;;;;5077000;28;20063;-78
2021/05/23 08:46:19;;;;;;;3.65;2.35;;;819.20;1075.20;;;;;;5075705;28;20029;-77
2021/05/23 08:48:46;;;;;;;4.30;2.90;;;819.40;1049.60;;;;;;5081214;28;20055;-77
2021/05/23 08:51:13;;;;;;;6.90;3.63;;;819.70;1049.60;;;;;;5080961;28;20021;-77
2021/05/23 08:53:38;;;;;;;8.20;3.17;;;819.80;998.40;;;;;;5087404;28;20127;-77
2021/05/23 08:56:04;;;;;;;5.13;2.65;;;820.00;998.40;;;;;;5080163;28;20108;-77
2021/05/23 08:58:30;;;;;;;5.07;2.20;;;819.90;972.80;;;;;;5078275;28;20161;-77
2021/05/23 09:00:55;;;;;;;3.90;2.25;;;819.90;972.80;;;;;;5063542;28;20035;-77
2021/05/23 09:03:21;;;;;;;5.00;2.00;;;819.90;972.80;;;;;;5075330;28;20548;-77
2021/05/23 09:05:49;;;;;;;4.20;2.25;;;845.00;998.40;;;;;;5071198;28;20025;-77
2021/05/23 09:08:21;;;;;;;8.27;2.20;;;820.10;972.80;;;;;;5071924;28;20025;-75
2021/05/23 09:10:54;;;;;;;4.45;2.85;;;844.80;998.40;;;;;;5070727;28;20020;-75
2021/05/23 09:13:32;;;;;;;9.30;3.55;;;820.10;947.20;;;;;;5074726;28;20030;-77
2021/05/23 09:16:00;;;;;;;5.07;2.85;;;844.90;947.20;;;;;;5083418;28;20024;-77
2021/05/23 09:18:37;;;;;;;6.05;2.80;;;845.10;921.60;;;;;;5083650;28;20108;-77
2021/05/23 09:21:03;;;;;;;5.53;2.45;;;845.00;921.60;;;;;;5080923;28;20020;-78
2021/05/23 09:23:44;;;;;;;3.15;2.10;;;845.30;921.60;;;;;;5070961;28;20391;-77
2021/05/23 09:26:17;;;;;;;4.38;2.60;;;845.70;896.00;;;;;;5061149;28;20380;-77
2021/05/23 09:28:43;;;;;;;5.03;2.33;;;870.70;870.40;;;;;;5056950;28;20017;-77
2021/05/23 09:31:16;;;;;;;8.50;3.33;;;870.70;896.00;;;;;;5074869;28;20070;-78
2021/05/23 09:33:44;;;;;;;4.32;2.40;;;870.80;870.40;;;;;;5080558;28;20023;-78
2021/05/23 09:36:10;;;;;;;2.88;2.10;;;871.10;870.40;;;;;;5073970;28;20031;-78
2021/05/23 09:38:39;;;;;;;4.65;2.78;;;871.10;844.80;;;;;;5072635;28;20119;-77
2021/05/23 09:41:20;;;;;;;3.30;2.33;;;870.90;870.40;;;;;;5073255;28;20472;-77
2021/05/23 09:43:47;;;;;;;3.90;2.40;;;871.10;870.40;;;;;;5078992;28;20074;-77
2021/05/23 09:46:12;;;;;;;5.72;2.42;;;871.30;844.80;;;;;;5073926;28;20035;-78
2021/05/23 09:48:38;;;;;;;4.18;3.00;;;871.00;844.80;;;;;;5079594;28;20024;-77
2021/05/23 09:51:15;;;;;;;5.10;3.38;;;871.30;844.80;;;;;;5072812;28;20032;-78
2021/05/23 09:53:42;;;;;;;5.05;2.78;;;871.30;870.40;;;;;;5078380;28;20049;-78
2021/05/23 09:56:12;;;;;;;4.85;2.67;;;896.20;844.80;;;;;;5053691;28;20036;-77
2021/05/23 09:58:39;;;;;;;5.38;2.08;;;896.40;870.40;;;;;;5053994;28;20036;-78
2021/05/23 10:01:11;;;;;;;4.20;2.67;;;896.70;819.20;;;;;;5055621;28;20017;-78
2021/05/23 10:03:40;;;;;;;6.65;3.22;;;921.70;844.80;;;;;;5054785;28;20033;-78
2021/05/23 10:06:08;;;;;;;2.80;2.10;;;921.70;844.80;;;;;;5074963;28;20021;-78
2021/05/23 10:08:34;;;;;;;4.10;2.10;;;921.80;819.20;;;;;;5073314;28;20530;-78
2021/05/23 10:11:00;;;;;;;4.85;2.42;;;896.60;793.60;;;;;;5073650;28;20137;-78
2021/05/23 10:13:27;;;;;;;5.10;2.17;;;922.00;793.60;;;;;;5072649;28;20491;-77
2021/05/23 10:15:54;;;;;;;4.07;2.45;;;896.10;819.20;;;;;;5089163;28;20031;-77
2021/05/23 10:18:25;;;;;;;3.70;2.20;;;896.10;819.20;;;;;;5075612;28;20501;-78
2021/05/23 10:20:54;;;;;;;8.52;2.20;;;896.10;819.20;;;;;;5072207;28;20032;-78
2021/05/23 10:23:34;;;;;;;3.55;2.40;;;896.30;819.20;;;;;;5087109;28;20077;-78
2021/05/23 10:26:04;;;;;;;3.78;2.53;;;896.60;819.20;;;;;;5083487;28;20028;-78
2021/05/23 10:28:35;;;;;;;3.58;2.08;;;896.50;844.80;;;;;;5072150;28;20103;-78
2021/05/23 10:31:01;;;;;;;3.95;2.55;;;896.80;819.20;;;;;;5069911;28;20614;-78
2021/05/23 10:33:26;;;;;;;3.38;2.67;;;921.70;844.80;;;;;;5075572;28;20115;-78
2021/05/23 10:35:54;;;;;;;4.43;3.25;;;921.70;844.80;;;;;;5071400;28;20491;-78
2021/05/23 10:38:23;;;;;;;4.25;2.35;;;922.00;844.80;;;;;;5088304;28;20040;-78
2021/05/23 10:41:00;;;;;;;5.78;2.20;;;921.80;844.80;;;;;;5061086;28;20025;-76
2021/05/23 10:43:34;;;;;;;4.60;2.28;;;922.30;819.20;;;;;;5073155;28;20052;-77
2021/05/23 10:46:04;;;;;;;10.35;3.47;;;922.50;793.60;;;;;;5074242;28;20027;-76
2021/05/23 10:48:30;;;;;;;3.35;2.35;;;947.60;793.60;;;;;;5077376;28;20021;-77
2021/05/23 10:50:56;;;;;;;5.65;2.65;;;948.00;793.60;;;;;;5086157;28;20501;-76
2021/05/23 10:53:33;;;;;;;3.88;2.50;;;947.20;819.20;;;;;;5085494;28;20050;-77
2021/05/23 10:55:58;;;;;;;6.00;1.95;;;947.60;819.20;;;;;;5076726;28;20039;-77
2021/05/23 10:58:26;;;;;;;5.53;2.75;;;921.90;742.40;;;;;;5071796;28;20032;-78
2021/05/23 11:00:54;;;;;;;4.32;3.08;;;922.30;768.00;;;;;;5068999;28;20036;-77
2021/05/23 11:03:23;;;;;;;3.30;2.33;;;947.50;742.40;;;;;;5073033;28;20043;-76
2021/05/23 11:06:00;;;;;;;4.47;2.38;;;947.50;716.80;;;;;;5081588;28;20020;-78
2021/05/23 11:08:33;;;;;;;3.20;1.98;;;947.30;742.40;;;;;;5073177;28;20028;-77
2021/05/23 11:10:59;;;;;;;3.03;1.85;;;921.90;716.80;;;;;;5077760;28;20400;-76
2021/05/23 11:13:33;;;;;;;5.07;2.00;;;896.80;691.20;;;;;;5073563;28;20047;-79
2021/05/23 11:16:11;;;;;;;5.05;2.90;;;896.80;716.80;;;;;;5077726;28;20037;-76
2021/05/23 11:18:37;;;;;;;3.75;1.92;;;896.80;716.80;;;;;;5075059;28;20500;-77
2021/05/23 11:21:08;;;;;;;4.03;2.60;;;896.50;716.80;;;;;;5077529;28;20661;-77
2021/05/23 11:23:54;;;;;;;5.50;1.90;;;922.50;716.80;;;;;;5070098;28;20024;-78
2021/05/23 11:26:22;;;;;;;2.65;1.60;;;947.50;691.20;;;;;;5086375;28;20189;-77
2021/05/23 11:28:57;;;;;;;4.93;1.88;;;947.80;665.60;;;;;;5075520;28;20029;-77
2021/05/23 11:31:38;;;;;;;2.60;1.75;;;972.80;691.20;;;;;;5077394;28;20480;-78
2021/05/23 11:34:06;;;;;;;4.00;2.40;;;972.90;691.20;;;;;;5074634;28;20025;-77
2021/05/23 11:36:37;;;;;;;3.25;2.08;;;972.80;691.20;;;;;;5077138;28;20020;-78
2021/05/23 11:39:12;;;;;;;6.13;2.08;;;947.70;665.60;;;;;;5065893;28;20035;-78
2021/05/23 11:41:50;;;;;;;2.58;1.80;;;973.00;691.20;;;;;;5073524;28;20111;-77
2021/05/23 11:44:18;;;;;;;2.75;1.75;;;947.90;665.60;;;;;;5071776;28;20021;-78
2021/05/23 11:46:50;;;;;;;4.10;1.95;;;947.80;665.60;;;;;;5078054;28;20468;-78
2021/05/23 11:49:20;;;;;;;2.72;1.83;;;948.00;665.60;;;;;;5079828;28;20462;-77
2021/05/23 11:51:47;;;;;;;3.70;1.75;;;972.90;716.80;;;;;;5083531;28;20455;-78
2021/05/23 11:54:13;;;;;;;3.13;1.88;;;973.10;665.60;;;;;;5081128;28;20024;-78
2021/05/23 11:56:40;;;;;;;3.85;2.03;;;972.90;691.20;;;;;;5083359;28;20514;-78
2021/05/23 11:59:08;;;;;;;6.15;1.98;;;973.00;665.60;;;;;;5080555;28;20477;-77
2021/05/23 12:01:36;;;;;;;3.00;2.00;;;948.00;640.00;;;;;;5072971;28;20398;-77
2021/05/23 12:04:06;;;;;;;4.43;2.33;;;972.80;691.20;;;;;;5070155;28;20083;-78
2021/05/23 12:06:34;;;;;;;2.67;1.90;;;947.70;665.60;;;;;;5080315;28;20034;-77
2021/05/23 12:09:17;;;;;;;3.38;2.55;;;972.80;665.60;;;;;;5078736;28;20052;-78
2021/05/23 12:11:49;;;;;;;5.63;1.75;;;973.10;665.60;;;;;;5065287;28;20060;-77
2021/05/23 12:14:32;;;;;;;2.90;1.90;;;947.90;665.60;;;;;;5076410;28;20102;-77
2021/05/23 12:17:08;;;;;;;4.72;2.38;;;973.10;665.60;;;;;;5078307;28;20104;-77
2021/05/23 12:19:47;;;;;;;3.33;1.77;;;948.00;665.60;;;;;;5070462;28;20052;-78
2021/05/23 12:22:18;;;;;;;4.25;2.08;;;973.00;665.60;;;;;;5064903;28;20036;-77
2021/05/23 12:24:51;;;;;;;5.70;2.35;;;973.50;665.60;;;;;;5074309;28;20036;-77